Time;durP1;ratioP1;P1;durP2;ratioP2;P2;SDS_P1;SDS_P2;PMS_P1;PMS_P2;Temp;Humidity;BMP_temperature;BMP_pressure;BME280_temperature;BME280_humidity;BME280_pressure;Samples;Min_cycle;Max_cycle;Signal;HPM_P1;HPM_P2
2021/10/14 00:00:32;;;;;;;7.28;2.67;;;;;24.40;99637.00;;;;5109876;28;20171;-80
2021/10/14 00:03:01;;;;;;;6.05;2.50;;;;;24.30;99647.00;;;;5103863;28;20039;-80
2021/10/14 00:05:31;;;;;;;5.57;2.42;;;;;24.50;99653.00;;;;5107601;28;20052;-75
2021/10/14 00:08:01;;;;;;;6.28;2.47;;;;;24.50;99656.00;;;;5100063;28;21024;-80
2021/10/14 00:10:31;;;;;;;8.55;3.25;;;;;24.50;99651.00;;;;5089597;28;20048;-77
2021/10/14 00:13:01;;;;;;;4.95;2.65;;;;;24.30;99678.00;;;;5088977;28;20051;-85
2021/10/14 00:15:30;;;;;;;10.55;2.50;;;;;24.50;99678.00;;;;5086733;28;20051;-75
2021/10/14 00:18:00;;;;;;;10.90;2.63;;;;;24.30;99667.00;;;;5089516;28;20052;-75
2021/10/14 00:20:30;;;;;;;6.17;2.70;;;;;24.30;99685.00;;;;5095266;28;20062;-73
2021/10/14 00:23:00;;;;;;;10.05;2.78;;;;;24.20;99676.00;;;;5089796;28;20044;-74
2021/10/14 00:25:31;;;;;;;7.25;2.65;;;;;24.10;99690.00;;;;5089477;28;20048;-73
2021/10/14 00:28:01;;;;;;;7.47;3.00;;;;;24.30;99671.00;;;;5088069;28;20070;-75
2021/10/14 00:30:30;;;;;;;6.45;2.53;;;;;24.50;99685.00;;;;5089384;28;20511;-73
2021/10/14 00:33:00;;;;;;;7.07;3.00;;;;;24.40;99683.00;;;;5087966;28;20044;-74
2021/10/14 00:35:29;;;;;;;8.00;2.35;;;;;24.40;99693.00;;;;5089190;28;20048;-76
2021/10/14 00:37:59;;;;;;;6.28;2.30;;;;;24.20;99702.00;;;;5089552;28;20086;-74
2021/10/14 00:40:30;;;;;;;10.90;2.40;;;;;24.20;99704.00;;;;5089042;28;20079;-73
2021/10/14 00:43:01;;;;;;;6.22;2.70;;;;;24.00;99723.00;;;;5088461;28;20048;-75
2021/10/14 00:45:30;;;;;;;4.82;2.13;;;;;23.80;99720.00;;;;5089388;28;20100;-74
2021/10/14 00:48:05;;;;;;;7.30;2.60;;;;;23.80;99745.00;;;;5070949;28;20071;-75
2021/10/14 00:50:35;;;;;;;8.20;2.30;;;;;23.70;99735.00;;;;5087936;28;20514;-74
2021/10/14 00:53:07;;;;;;;11.30;2.45;;;;;23.50;99760.00;;;;5088760;28;20540;-76
2021/10/14 00:55:37;;;;;;;5.63;2.55;;;;;23.40;99751.00;;;;5088192;28;20055;-74
2021/10/14 00:58:07;;;;;;;4.70;2.60;;;;;23.30;99748.00;;;;5089232;28;20054;-75
2021/10/14 01:00:36;;;;;;;4.90;2.63;;;;;23.20;99752.00;;;;5088293;28;20101;-74
2021/10/14 01:03:06;;;;;;;8.20;2.60;;;;;23.10;99752.00;;;;5088490;28;20167;-75
2021/10/14 01:05:36;;;;;;;9.02;2.63;;;;;23.00;99749.00;;;;5089122;28;20521;-75
2021/10/14 01:08:05;;;;;;;8.40;2.92;;;;;23.00;99754.00;;;;5088151;28;20122;-75
2021/10/14 01:10:35;;;;;;;4.63;2.80;;;;;22.90;99757.00;;;;5088219;28;20618;-74
2021/10/14 01:13:06;;;;;;;8.35;2.47;;;;;22.80;99754.00;;;;5087841;28;20530;-77
2021/10/14 01:15:35;;;;;;;7.65;2.58;;;;;22.80;99753.00;;;;5095152;28;20039;-73
2021/10/14 01:18:05;;;;;;;6.70;2.35;;;;;22.70;99766.00;;;;5085028;28;20040;-76
2021/10/14 01:20:34;;;;;;;6.80;2.72;;;;;22.60;99752.00;;;;5086900;28;20040;-74
2021/10/14 01:23:06;;;;;;;5.80;2.53;;;;;22.50;99761.00;;;;5088219;28;20044;-77
2021/10/14 01:25:36;;;;;;;3.97;2.53;;;;;22.50;99752.00;;;;5088144;28;20052;-74
2021/10/14 01:28:06;;;;;;;5.95;2.63;;;;;22.40;99748.00;;;;5086618;28;20036;-73
2021/10/14 01:30:35;;;;;;;6.43;3.00;;;;;22.20;99750.00;;;;5088027;28;20075;-73
2021/10/14 01:33:19;;;;;;;6.32;2.78;;;;;22.20;99748.00;;;;5087453;28;20048;-73
2021/10/14 01:35:49;;;;;;;6.53;2.50;;;;;22.10;99731.00;;;;5087762;28;20435;-73
2021/10/14 01:38:18;;;;;;;6.60;3.00;;;;;22.10;99717.00;;;;5087822;28;20050;-76
2021/10/14 01:40:48;;;;;;;7.47;2.60;;;;;22.00;99722.00;;;;5088248;28;20043;-73
2021/10/14 01:43:20;;;;;;;11.73;3.03;;;;;21.90;99725.00;;;;5088471;28;20044;-74
2021/10/14 01:45:49;;;;;;;7.78;2.97;;;;;21.90;99708.00;;;;5087668;28;20044;-75
2021/10/14 01:48:20;;;;;;;10.82;3.25;;;;;22.00;99712.00;;;;5085914;28;20040;-77
2021/10/14 01:50:49;;;;;;;6.47;2.83;;;;;22.10;99702.00;;;;5087818;28;20510;-77
2021/10/14 01:53:18;;;;;;;5.55;2.78;;;;;22.30;99708.00;;;;5087695;28;20090;-73
2021/10/14 01:55:48;;;;;;;4.75;2.83;;;;;22.50;99708.00;;;;5086304;28;20061;-74
2021/10/14 01:58:18;;;;;;;6.68;2.72;;;;;22.60;99700.00;;;;5086422;28;20067;-76
2021/10/14 02:00:50;;;;;;;9.85;2.60;;;;;22.50;99694.00;;;;5086476;28;20051;-76
2021/10/14 02:03:20;;;;;;;7.10;2.78;;;;;22.50;99686.00;;;;5087279;28;20515;-75
2021/10/14 02:05:50;;;;;;;7.25;2.70;;;;;22.50;99683.00;;;;5087385;28;20044;-76
2021/10/14 02:08:19;;;;;;;5.93;2.42;;;;;22.60;99679.00;;;;5087444;28;20040;-76
2021/10/14 02:10:48;;;;;;;7.95;2.67;;;;;22.70;99686.00;;;;5087259;28;20444;-73
2021/10/14 02:13:18;;;;;;;6.75;2.78;;;;;22.60;99678.00;;;;5087115;28;20452;-74
2021/10/14 02:15:47;;;;;;;6.55;2.60;;;;;22.50;99686.00;;;;5087108;28;20044;-77
2021/10/14 02:18:17;;;;;;;4.82;2.60;;;;;22.40;99691.00;;;;5086939;28;20134;-76
2021/10/14 02:20:46;;;;;;;6.93;2.90;;;;;22.20;99681.00;;;;5087107;28;20047;-75
2021/10/14 02:23:16;;;;;;;6.53;2.80;;;;;22.20;99685.00;;;;5086527;28;20059;-76
2021/10/14 02:25:45;;;;;;;8.00;2.90;;;;;22.10;99682.00;;;;5087166;28;20493;-77
2021/10/14 02:28:16;;;;;;;6.50;2.80;;;;;22.10;99654.00;;;;5087052;28;20048;-74
2021/10/14 02:30:45;;;;;;;10.27;2.95;;;;;22.10;99655.00;;;;5087430;28;20051;-75
2021/10/14 02:33:14;;;;;;;5.82;2.40;;;;;22.00;99670.00;;;;5068944;28;20418;-75
2021/10/14 02:35:44;;;;;;;4.72;2.63;;;;;21.90;99673.00;;;;5087441;28;20040;-76
2021/10/14 02:38:13;;;;;;;13.38;3.65;;;;;21.90;99665.00;;;;5086760;28;20051;-77
2021/10/14 02:40:43;;;;;;;6.25;2.60;;;;;22.00;99664.00;;;;5086507;28;20051;-74
2021/10/14 02:43:12;;;;;;;8.55;2.58;;;;;22.00;99671.00;;;;5086792;28;20055;-76
2021/10/14 02:45:42;;;;;;;9.68;2.88;;;;;22.00;99657.00;;;;5086931;28;20134;-77
2021/10/14 02:48:12;;;;;;;6.78;2.20;;;;;21.80;99669.00;;;;5086366;28;20430;-76
2021/10/14 02:50:41;;;;;;;5.35;2.35;;;;;21.70;99650.00;;;;5087188;28;20380;-74
2021/10/14 02:53:10;;;;;;;7.53;2.95;;;;;21.60;99639.00;;;;5068769;28;20048;-75
2021/10/14 02:55:40;;;;;;;8.38;3.53;;;;;21.60;99641.00;;;;5086762;28;20044;-77
2021/10/14 02:58:10;;;;;;;9.07;2.63;;;;;21.70;99641.00;;;;5086452;28;20044;-74
2021/10/14 03:00:39;;;;;;;7.40;2.63;;;;;21.80;99654.00;;;;5086364;28;20042;-75
2021/10/14 03:03:08;;;;;;;6.80;2.85;;;;;21.70;99634.00;;;;5086667;28;20391;-73
2021/10/14 03:05:38;;;;;;;6.78;2.70;;;;;21.60;99626.00;;;;5086344;28;20106;-75
2021/10/14 03:08:08;;;;;;;10.93;2.58;;;;;21.50;99649.00;;;;5086135;28;20044;-73
2021/10/14 03:10:38;;;;;;;13.75;3.00;;;;;21.50;99627.00;;;;5086451;28;20054;-75
2021/10/14 03:13:07;;;;;;;6.63;2.42;;;;;21.50;99620.00;;;;5086720;28;20529;-73
2021/10/14 03:15:37;;;;;;;4.25;2.28;;;;;21.40;99588.00;;;;5068194;28;20086;-73
2021/10/14 03:18:06;;;;;;;5.95;2.55;;;;;21.50;99579.00;;;;5067842;28;20483;-77
2021/10/14 03:20:36;;;;;;;6.32;2.50;;;;;21.40;99579.00;;;;5085879;28;20121;-76
2021/10/14 03:23:06;;;;;;;4.43;2.20;;;;;21.40;99594.00;;;;5086085;28;20056;-76
2021/10/14 03:25:35;;;;;;;6.78;2.42;;;;;21.30;99572.00;;;;5085461;28;20071;-74
2021/10/14 03:28:07;;;;;;;6.00;2.03;;;;;21.30;99574.00;;;;5067614;28;20515;-73
2021/10/14 03:30:37;;;;;;;5.40;2.03;;;;;21.20;99589.00;;;;5086043;28;20569;-73
2021/10/14 03:33:06;;;;;;;8.57;2.20;;;;;21.30;99582.00;;;;5086058;28;20502;-76
2021/10/14 03:35:36;;;;;;;6.25;2.00;;;;;21.20;99550.00;;;;5086598;28;20048;-74
2021/10/14 03:38:06;;;;;;;6.10;1.70;;;;;21.20;99524.00;;;;5086170;28;20093;-77
2021/10/14 03:40:36;;;;;;;4.60;1.90;;;;;21.10;99513.00;;;;5085634;28;20047;-74
2021/10/14 03:43:05;;;;;;;3.30;1.83;;;;;21.20;99581.00;;;;5086218;28;20047;-73
2021/10/14 03:45:35;;;;;;;2.75;1.77;;;;;21.40;99591.00;;;;5086719;28;20048;-76
2021/10/14 03:48:05;;;;;;;5.88;2.08;;;;;21.60;99539.00;;;;5101605;28;20047;-76
2021/10/14 03:50:34;;;;;;;3.63;1.35;;;;;21.40;99501.00;;;;5105178;28;20051;-73
2021/10/14 03:53:04;;;;;;;4.25;1.60;;;;;21.20;99476.00;;;;5106808;28;20127;-75
2021/10/14 03:55:33;;;;;;;6.63;1.90;;;;;21.10;99480.00;;;;5107049;28;20051;-73
2021/10/14 03:58:03;;;;;;;3.67;2.05;;;;;21.00;99466.00;;;;5106834;28;20581;-76
2021/10/14 04:00:32;;;;;;;4.85;1.92;;;;;21.00;99461.00;;;;5106787;28;20031;-76
2021/10/14 04:03:02;;;;;;;4.32;2.05;;;;;21.00;99441.00;;;;5102049;28;20051;-76
2021/10/14 04:05:32;;;;;;;4.95;1.85;;;;;21.30;99426.00;;;;5106567;28;20048;-74
2021/10/14 04:08:01;;;;;;;6.22;2.20;;;;;21.20;99379.00;;;;5088179;28;20391;-75
2021/10/14 04:10:30;;;;;;;2.50;1.70;;;;;21.00;99376.00;;;;5106340;28;20058;-76
2021/10/14 04:13:00;;;;;;;4.28;1.65;;;;;20.90;99358.00;;;;5106234;28;20540;-73
2021/10/14 04:15:29;;;;;;;2.13;1.50;;;;;21.20;99358.00;;;;5105981;28;20085;-76
2021/10/14 04:17:59;;;;;;;3.92;1.65;;;;;21.60;99360.00;;;;5087235;28;20052;-74
2021/10/14 04:20:28;;;;;;;4.65;1.50;;;;;21.50;99343.00;;;;5110361;28;20043;-75
2021/10/14 04:22:58;;;;;;;10.52;1.50;;;;;21.40;99343.00;;;;5109922;28;20047;-74
2021/10/14 04:25:27;;;;;;;2.90;1.75;;;;;21.40;99329.00;;;;5110017;28;20082;-75
2021/10/14 04:27:58;;;;;;;3.45;1.40;;;;;21.80;99316.00;;;;5110052;28;20060;-76
2021/10/14 04:30:27;;;;;;;4.97;1.35;;;;;22.00;99305.00;;;;5091869;28;20041;-77
2021/10/14 04:32:56;;;;;;;1.17;1.00;;;;;22.60;99294.00;;;;5092225;28;20525;-75
2021/10/14 04:35:26;;;;;;;4.25;1.40;;;;;23.50;99279.00;;;;5109802;28;20048;-72
2021/10/14 04:37:55;;;;;;;2.40;1.30;;;;;23.80;99239.00;;;;5109485;28;20403;-76
2021/10/14 04:40:25;;;;;;;2.70;1.10;;;;;23.90;99275.00;;;;5109230;28;20422;-73
2021/10/14 04:42:54;;;;;;;3.25;1.48;;;;;23.90;99263.00;;;;5109312;28;20039;-76
2021/10/14 04:45:24;;;;;;;2.28;1.30;;;;;24.00;99248.00;;;;5108266;28;20054;-76
2021/10/14 04:47:53;;;;;;;5.97;1.50;;;;;23.70;99249.00;;;;5109371;28;20051;-73
2021/10/14 04:50:23;;;;;;;3.83;1.10;;;;;23.60;99252.00;;;;5109315;28;20547;-74
2021/10/14 04:52:52;;;;;;;3.35;1.30;;;;;23.30;99241.00;;;;5108982;28;20112;-74
2021/10/14 04:55:21;;;;;;;1.95;1.20;;;;;23.10;99231.00;;;;5109203;28;20494;-72
2021/10/14 04:57:53;;;;;;;4.22;1.30;;;;;23.10;99211.00;;;;5109480;28;20058;-76
2021/10/14 05:00:23;;;;;;;2.95;1.23;;;;;23.20;99177.00;;;;5110009;28;20047;-76
2021/10/14 05:02:53;;;;;;;1.55;1.00;;;;;23.80;99188.00;;;;5108413;28;20051;-74
2021/10/14 05:05:22;;;;;;;3.58;1.10;;;;;23.80;99175.00;;;;5109257;28;20063;-75
2021/10/14 05:07:52;;;;;;;2.88;1.00;;;;;23.40;99165.00;;;;5108705;28;20119;-73
2021/10/14 05:10:21;;;;;;;1.75;1.13;;;;;23.00;99157.00;;;;5109278;28;20076;-74
2021/10/14 05:12:51;;;;;;;3.72;1.10;;;;;22.90;99180.00;;;;5108466;28;20061;-76
2021/10/14 05:15:20;;;;;;;1.25;0.95;;;;;22.80;99170.00;;;;5108107;28;20058;-73
2021/10/14 05:17:50;;;;;;;3.63;1.20;;;;;22.70;99184.00;;;;5108591;28;20052;-77
2021/10/14 05:20:20;;;;;;;1.48;1.20;;;;;22.40;99175.00;;;;5108517;28;20047;-77
2021/10/14 05:22:49;;;;;;;3.88;1.58;;;;;22.40;99197.00;;;;5108872;28;20050;-77
2021/10/14 05:25:19;;;;;;;6.82;1.30;;;;;22.20;99201.00;;;;5090175;28;20056;-77
2021/10/14 05:27:49;;;;;;;2.50;1.20;;;;;22.00;99173.00;;;;5109428;28;20594;-75
2021/10/14 05:30:20;;;;;;;4.18;0.90;;;;;22.00;99181.00;;;;5108297;28;20494;-74
2021/10/14 05:32:49;;;;;;;3.97;1.25;;;;;21.80;99205.00;;;;5108610;28;20094;-74
2021/10/14 05:35:36;;;;;;;10.02;1.27;;;;;21.80;99216.00;;;;5108408;28;20047;-76
2021/10/14 05:38:06;;;;;;;6.70;1.25;;;;;21.80;99189.00;;;;5108952;28;20061;-77
2021/10/14 05:40:36;;;;;;;;;;;;;21.80;99210.00;;;;5108853;28;20047;-74
2021/10/14 05:43:05;;;;;;;2.53;1.10;;;;;21.60;99208.00;;;;5107858;28;19931;-74
2021/10/14 05:45:35;;;;;;;4.45;1.40;;;;;21.70;99218.00;;;;5108225;28;20601;-74
2021/10/14 05:48:04;;;;;;;4.22;1.20;;;;;21.80;99225.00;;;;5089877;28;20075;-76
2021/10/14 05:50:34;;;;;;;7.18;1.30;;;;;21.60;99206.00;;;;5108343;28;20464;-74
2021/10/14 05:53:03;;;;;;;5.63;1.48;;;;;21.30;99218.00;;;;5108168;28;20044;-74
2021/10/14 05:55:33;;;;;;;4.82;1.20;;;;;21.20;99187.00;;;;5107534;28;20459;-75
2021/10/14 05:58:02;;;;;;;2.00;1.20;;;;;21.20;99214.00;;;;5108196;28;20043;-78
2021/10/14 06:00:31;;;;;;;4.25;1.20;;;;;21.20;99219.00;;;;5089502;28;20052;-78
2021/10/14 06:03:02;;;;;;;3.70;1.30;;;;;21.20;99205.00;;;;5107956;28;20452;-76
2021/10/14 06:05:32;;;;;;;5.50;1.50;;;;;21.10;99190.00;;;;5108057;28;20405;-77
2021/10/14 06:08:01;;;;;;;3.58;1.23;;;;;21.10;99182.00;;;;5107617;28;20039;-76
2021/10/14 06:10:31;;;;;;;3.75;1.25;;;;;21.00;99192.00;;;;5107199;28;20044;-76
2021/10/14 06:13:00;;;;;;;2.85;0.98;;;;;20.90;99195.00;;;;5089491;28;20044;-74
2021/10/14 06:15:30;;;;;;;2.20;1.10;;;;;20.90;99200.00;;;;5108416;28;20474;-74
2021/10/14 06:17:59;;;;;;;2.72;1.17;;;;;20.80;99181.00;;;;5107248;28;20035;-76
2021/10/14 06:20:29;;;;;;;3.72;1.20;;;;;20.70;99202.00;;;;5089194;28;20054;-77
2021/10/14 06:23:02;;;;;;;5.63;1.45;;;;;20.70;99205.00;;;;5089367;28;20732;-76
2021/10/14 06:25:31;;;;;;;1.73;1.08;;;;;20.60;99190.00;;;;5107217;28;20657;-78
2021/10/14 06:28:01;;;;;;;3.50;1.17;;;;;20.50;99188.00;;;;5107223;28;20078;-75
2021/10/14 06:30:32;;;;;;;5.00;1.30;;;;;20.60;99204.00;;;;5107438;28;20663;-76
2021/10/14 06:33:02;;;;;;;2.17;1.17;;;;;20.60;99212.00;;;;5107254;28;20581;-78
2021/10/14 06:35:31;;;;;;;7.10;1.42;;;;;20.40;99209.00;;;;5104424;28;20047;-75
2021/10/14 06:38:01;;;;;;;4.47;1.63;;;;;20.40;99209.00;;;;5107759;28;20047;-76
2021/10/14 06:40:30;;;;;;;5.53;2.13;;;;;20.30;99224.00;;;;5106901;28;20549;-76
2021/10/14 06:43:00;;;;;;;3.42;1.30;;;;;20.20;99231.00;;;;5106467;28;20051;-75
2021/10/14 06:45:30;;;;;;;3.35;1.30;;;;;20.20;99230.00;;;;5107173;28;20717;-75
2021/10/14 06:47:59;;;;;;;3.15;1.17;;;;;20.10;99206.00;;;;5088872;28;20422;-75
2021/10/14 06:50:30;;;;;;;4.35;1.20;;;;;20.10;99216.00;;;;5107130;28;20036;-74
2021/10/14 06:53:01;;;;;;;;;;;;;20.20;99220.00;;;;5107803;28;20417;-75
2021/10/14 06:55:30;;;;;;;7.18;1.40;;;;;20.10;99207.00;;;;5106697;28;19926;-76
2021/10/14 06:58:00;;;;;;;2.83;1.52;;;;;20.00;99217.00;;;;5107026;28;20040;-73
2021/10/14 07:00:29;;;;;;;5.57;2.08;;;;;20.00;99200.00;;;;5089395;28;20078;-77
2021/10/14 07:02:59;;;;;;;5.57;1.50;;;;;19.90;99186.00;;;;5107088;28;20593;-74
2021/10/14 07:05:29;;;;;;;2.33;1.40;;;;;19.90;99208.00;;;;5106714;28;20573;-76
2021/10/14 07:07:58;;;;;;;2.97;1.30;;;;;20.10;99186.00;;;;5107360;28;20086;-75
2021/10/14 07:10:29;;;;;;;4.22;1.20;;;;;20.10;99185.00;;;;5106926;28;20043;-75
2021/10/14 07:13:04;;;;;;;3.00;1.50;;;;;20.00;99200.00;;;;5106613;28;20475;-75
2021/10/14 07:15:39;;;;;;;5.82;1.58;;;;;20.00;99200.00;;;;5088089;28;20428;-75
2021/10/14 07:18:09;;;;;;;3.40;1.50;;;;;20.10;99190.00;;;;5106725;28;20051;-76
2021/10/14 07:20:39;;;;;;;4.35;1.33;;;;;20.10;99198.00;;;;5106551;28;20067;-77
2021/10/14 07:23:13;;;;;;;4.10;1.83;;;;;19.90;99202.00;;;;5106667;28;20043;-78
2021/10/14 07:25:45;;;;;;;4.70;1.40;;;;;19.80;99201.00;;;;5106780;28;20534;-78
2021/10/14 07:28:14;;;;;;;4.82;1.40;;;;;19.80;99193.00;;;;5106489;28;20044;-75
2021/10/14 07:30:44;;;;;;;9.35;1.40;;;;;19.60;99189.00;;;;5106555;28;20048;-74
2021/10/14 07:33:13;;;;;;;4.03;1.45;;;;;19.50;99194.00;;;;5106454;28;20134;-77
2021/10/14 07:35:43;;;;;;;2.75;1.55;;;;;19.50;99178.00;;;;5106529;28;20084;-75
2021/10/14 07:38:14;;;;;;;6.28;1.58;;;;;19.40;99191.00;;;;5106623;28;20051;-76
2021/10/14 07:40:44;;;;;;;3.25;1.52;;;;;19.40;99185.00;;;;5106397;28;20050;-76
2021/10/14 07:43:15;;;;;;;6.70;1.25;;;;;19.40;99174.00;;;;5105655;28;20085;-74
2021/10/14 07:45:47;;;;;;;7.07;1.50;;;;;19.40;99161.00;;;;5106971;28;20046;-76
2021/10/14 07:48:17;;;;;;;4.53;1.40;;;;;19.30;99171.00;;;;5106201;28;20074;-78
2021/10/14 07:50:46;;;;;;;3.88;1.45;;;;;19.30;99171.00;;;;5088544;28;20502;-75
2021/10/14 07:53:20;;;;;;;2.75;1.55;;;;;19.30;99183.00;;;;5089978;28;20048;-76
2021/10/14 07:55:50;;;;;;;8.68;1.58;;;;;19.20;99174.00;;;;5110463;28;20039;-75
2021/10/14 07:58:19;;;;;;;2.83;1.30;;;;;19.30;99177.00;;;;5091322;28;20043;-77
2021/10/14 08:00:49;;;;;;;6.60;1.45;;;;;19.20;99196.00;;;;5109782;28;20071;-77
2021/10/14 08:03:19;;;;;;;2.83;1.30;;;;;19.10;99207.00;;;;5110535;28;20721;-74
2021/10/14 08:05:48;;;;;;;5.13;1.27;;;;;19.20;99226.00;;;;5110643;28;20047;-76
2021/10/14 08:08:18;;;;;;;3.83;1.40;;;;;19.10;99228.00;;;;5110525;28;20586;-74
2021/10/14 08:10:48;;;;;;;9.25;1.45;;;;;19.00;99234.00;;;;5110278;28;20051;-74
2021/10/14 08:13:18;;;;;;;5.72;1.60;;;;;18.90;99216.00;;;;5109472;28;20498;-74
2021/10/14 08:15:52;;;;;;;2.78;1.40;;;;;19.10;99237.00;;;;5109839;28;20043;-76
2021/10/14 08:18:23;;;;;;;5.32;1.60;;;;;19.20;99238.00;;;;5091053;28;20112;-74
2021/10/14 08:20:56;;;;;;;6.55;1.70;;;;;19.20;99239.00;;;;5109707;28;20574;-76
2021/10/14 08:23:28;;;;;;;1.65;1.10;;;;;19.10;99235.00;;;;5110006;28;20044;-74
2021/10/14 08:25:57;;;;;;;8.80;1.70;;;;;19.30;99224.00;;;;5110805;28;20051;-76
2021/10/14 08:28:27;;;;;;;1.83;1.30;;;;;19.40;99241.00;;;;5110721;28;20047;-76
2021/10/14 08:30:57;;;;;;;9.52;1.35;;;;;19.50;99242.00;;;;5092200;28;20048;-76
2021/10/14 08:33:26;;;;;;;1.67;1.30;;;;;19.60;99244.00;;;;5091422;28;20101;-75
2021/10/14 08:35:56;;;;;;;2.50;1.30;;;;;19.70;99245.00;;;;5108981;28;20042;-75
2021/10/14 08:38:25;;;;;;;4.43;1.40;;;;;19.60;99258.00;;;;5109279;28;20048;-75
2021/10/14 08:40:55;;;;;;;5.18;1.55;;;;;19.50;99250.00;;;;5109373;28;20575;-78
2021/10/14 08:43:31;;;;;;;6.72;1.52;;;;;19.40;99264.00;;;;5110327;28;20056;-77
2021/10/14 08:46:02;;;;;;;3.42;1.55;;;;;19.30;99252.00;;;;5109248;28;20036;-77
2021/10/14 08:48:31;;;;;;;3.33;1.30;;;;;19.40;99267.00;;;;5108811;28;20040;-76
2021/10/14 08:51:01;;;;;;;5.00;1.80;;;;;19.40;99275.00;;;;5109542;28;20289;-75
2021/10/14 08:53:31;;;;;;;3.38;1.15;;;;;19.20;99277.00;;;;5109074;28;20515;-74
2021/10/14 08:56:00;;;;;;;8.00;1.60;;;;;19.20;99279.00;;;;5109386;28;20425;-75
2021/10/14 08:58:29;;;;;;;9.05;2.60;;;;;19.10;99312.00;;;;5109521;28;20516;-77
2021/10/14 09:01:13;;;;;;;9.98;1.60;;;;;19.20;99292.00;;;;5108836;28;20101;-76
2021/10/14 09:03:48;;;;;;;3.58;2.47;;;;;19.10;99306.00;;;;5108901;28;20535;-74
2021/10/14 09:06:18;;;;;;;2.50;1.15;;;;;19.10;99333.00;;;;5108583;28;20051;-76
2021/10/14 09:08:53;;;;;;;5.78;1.30;;;;;19.10;99338.00;;;;5108956;28;20106;-72
2021/10/14 09:11:28;;;;;;;6.25;1.60;;;;;19.00;99331.00;;;;5108696;28;20043;-75
2021/10/14 09:14:03;;;;;;;3.67;1.33;;;;;19.10;99328.00;;;;5108975;28;20131;-74
2021/10/14 09:16:36;;;;;;;8.75;1.45;;;;;19.10;99344.00;;;;5109584;28;20128;-76
2021/10/14 09:19:20;;;;;;;4.85;1.67;;;;;19.20;99338.00;;;;5090985;28;20088;-75
2021/10/14 09:22:01;;;;;;;3.22;1.60;;;;;19.40;99349.00;;;;5108998;28;20113;-73
2021/10/14 09:24:39;;;;;;;21.02;2.25;;;;;19.60;99349.00;;;;5108827;28;20067;-76
2021/10/14 09:27:19;;;;;;;7.18;1.50;;;;;19.40;99351.00;;;;5108658;28;20493;-75
2021/10/14 09:29:48;;;;;;;6.35;1.42;;;;;19.40;99346.00;;;;5108497;28;20126;-76
2021/10/14 09:32:19;;;;;;;5.18;1.70;;;;;19.50;99354.00;;;;5108033;28;20044;-75
2021/10/14 09:34:50;;;;;;;4.85;1.83;;;;;19.60;99371.00;;;;5108372;28;20516;-75
2021/10/14 09:37:19;;;;;;;9.77;2.15;;;;;19.60;99379.00;;;;5090173;28;20067;-72
2021/10/14 09:40:01;;;;;;;10.48;1.83;;;;;19.60;99380.00;;;;5108898;28;20051;-72
2021/10/14 09:43:07;;;;;;;3.65;1.52;;;;;19.70;99390.00;;;;5108395;28;20052;-76
2021/10/14 09:45:35;;;;;;;4.03;1.38;;;;;19.90;99398.00;;;;5108221;28;20489;-76
2021/10/14 09:48:05;;;;;;;5.13;1.60;;;;;20.20;99392.00;;;;5090464;28;20055;-74
2021/10/14 09:50:39;;;;;;;17.85;3.08;;;;;20.60;99391.00;;;;5087404;28;20134;-72
2021/10/14 09:53:17;;;;;;;11.50;1.85;;;;;20.90;99380.00;;;;5084662;28;20528;-76
2021/10/14 09:55:49;;;;;;;9.73;1.83;;;;;20.90;99400.00;;;;5091013;28;20517;-75
2021/10/14 09:58:22;;;;;;;10.70;1.60;;;;;21.10;99389.00;;;;5090592;28;20082;-74
2021/10/14 10:00:52;;;;;;;20.70;4.65;;;;;21.30;99410.00;;;;5091185;28;20560;-76
2021/10/14 10:03:23;;;;;;;12.50;2.28;;;;;21.60;99408.00;;;;5091750;28;20072;-74
2021/10/14 10:05:55;;;;;;;11.35;1.90;;;;;21.70;99414.00;;;;5091999;28;20044;-77
2021/10/14 10:08:29;;;;;;;18.73;2.28;;;;;21.80;99403.00;;;;5090881;28;20048;-76
2021/10/14 10:11:07;;;;;;;7.38;1.80;;;;;22.30;99380.00;;;;5087569;28;20044;-76
2021/10/14 10:13:43;;;;;;;45.47;5.63;;;;;22.60;99382.00;;;;5087201;28;20036;-74
2021/10/14 10:16:17;;;;;;;19.27;2.42;;;;;22.60;99417.00;;;;5085993;28;20040;-77
2021/10/14 10:18:54;;;;;;;15.82;3.70;;;;;22.70;99403.00;;;;5086696;28;20123;-75
2021/10/14 10:21:31;;;;;;;12.85;2.13;;;;;23.10;99383.00;;;;5087715;28;20474;-73
2021/10/14 10:24:08;;;;;;;12.63;2.47;;;;;24.30;99341.00;;;;5087903;28;20040;-75
2021/10/14 10:26:41;;;;;;;25.70;1.80;;;;;25.90;99275.00;;;;5087471;28;20139;-74
2021/10/14 10:29:16;;;;;;;17.83;2.20;;;;;27.60;99262.00;;;;5086838;28;20075;-75
2021/10/14 10:31:52;;;;;;;12.32;1.88;;;;;27.70;99325.00;;;;5087112;28;20040;-75
2021/10/14 10:37:42;;;;;;;;;;;;;29.00;99278.00;;;;5087557;28;20036;-74
2021/10/14 10:40:17;;;;;;;26.40;3.88;;;;;27.70;99318.00;;;;5086977;28;19924;-76
2021/10/14 10:42:52;;;;;;;10.40;1.70;;;;;27.50;99343.00;;;;5086689;28;20048;-74
2021/10/14 10:45:24;;;;;;;6.35;1.73;;;;;25.40;99432.00;;;;5086416;28;20044;-74
2021/10/14 10:47:54;;;;;;;10.80;2.05;;;;;24.60;99413.00;;;;5086959;28;20411;-77
2021/10/14 10:50:29;;;;;;;8.80;2.38;;;;;24.80;99418.00;;;;5086924;28;20054;-76
2021/10/14 10:53:07;;;;;;;6.78;1.83;;;;;25.70;99390.00;;;;5086450;28;20191;-76
2021/10/14 10:55:54;;;;;;;6.65;1.98;;;;;25.20;99366.00;;;;5085962;28;20036;-74
2021/10/14 10:58:35;;;;;;;10.30;2.67;;;;;25.60;99390.00;;;;5085821;28;20048;-77
2021/10/14 11:01:05;;;;;;;17.30;2.85;;;;;25.20;99430.00;;;;5085098;28;20074;-76
2021/10/14 11:03:35;;;;;;;16.15;3.03;;;;;26.20;99359.00;;;;5084872;28;20424;-74
2021/10/14 11:06:10;;;;;;;10.60;2.85;;;;;27.10;99355.00;;;;5085920;28;20046;-74
2021/10/14 11:08:40;;;;;;;7.28;2.60;;;;;28.10;99351.00;;;;5086223;28;20048;-75
2021/10/14 11:11:17;;;;;;;7.63;2.30;;;;;29.30;99376.00;;;;5086882;28;20113;-74
2021/10/14 11:13:51;;;;;;;18.52;4.75;;;;;28.40;99376.00;;;;5086688;28;20048;-77
2021/10/14 11:16:24;;;;;;;8.93;2.10;;;;;30.00;99345.00;;;;5086005;28;20036;-76
2021/10/14 11:18:58;;;;;;;7.80;2.25;;;;;27.50;99455.00;;;;5085411;28;20048;-75
2021/10/14 11:21:39;;;;;;;5.55;2.38;;;;;26.70;99428.00;;;;5085859;28;20528;-76
2021/10/14 11:24:09;;;;;;;14.82;4.35;;;;;27.20;99431.00;;;;5083287;28;20160;-76
2021/10/14 11:26:39;;;;;;;15.23;3.38;;;;;27.90;99437.00;;;;5085669;28;20059;-76
2021/10/14 11:29:20;;;;;;;27.90;4.90;;;;;29.80;99341.00;;;;5067668;28;20071;-76
2021/10/14 11:31:58;;;;;;;;;;;;;30.60;99385.00;;;;5087260;28;20369;-76
2021/10/14 11:34:28;;;;;;;9.00;2.53;;;;;29.30;99382.00;;;;5086410;28;19931;-75
2021/10/14 11:37:00;;;;;;;10.07;2.60;;;;;29.10;99359.00;;;;5067579;28;20071;-73
2021/10/14 11:39:50;;;;;;;6.70;2.13;;;;;28.10;99420.00;;;;5085689;28;20051;-75
2021/10/14 11:42:21;;;;;;;12.32;3.25;;;;;28.20;99411.00;;;;5086127;28;20420;-73
2021/10/14 11:44:57;;;;;;;9.00;2.35;;;;;29.30;99407.00;;;;5086247;28;20518;-73
2021/10/14 11:47:27;;;;;;;11.55;2.90;;;;;30.70;99342.00;;;;5067926;28;20052;-78
2021/10/14 11:50:09;;;;;;;9.52;2.03;;;;;31.90;99335.00;;;;5067698;28;20056;-74
2021/10/14 11:52:40;;;;;;;17.75;4.60;;;;;31.70;99359.00;;;;5086061;28;20114;-75
2021/10/14 11:55:10;;;;;;;11.13;2.25;;;;;31.30;99421.00;;;;5086338;28;20052;-74
2021/10/14 11:57:39;;;;;;;2.05;1.40;;;;;30.90;99420.00;;;;5085973;28;20043;-74
2021/10/14 12:00:09;;;;;;;13.95;3.40;;;;;30.50;99439.00;;;;5084244;28;20056;-73
2021/10/14 12:02:43;;;;;;;5.00;2.08;;;;;30.00;99444.00;;;;5085906;28;20511;-76
2021/10/14 12:05:13;;;;;;;5.07;1.70;;;;;29.90;99458.00;;;;5085186;28;20040;-75
2021/10/14 12:07:44;;;;;;;2.88;0.95;;;;;30.10;99449.00;;;;5084931;28;20051;-75
2021/10/14 12:10:41;;;;;;;6.43;1.98;;;;;30.20;99455.00;;;;5085465;28;20093;-75
2021/10/14 12:13:14;;;;;;;13.35;3.88;;;;;29.70;99453.00;;;;5085216;28;20097;-77
2021/10/14 12:15:45;;;;;;;4.53;1.02;;;;;29.80;99451.00;;;;5086149;28;20044;-74
2021/10/14 12:18:30;;;;;;;3.65;1.10;;;;;30.10;99449.00;;;;5085809;28;20044;-75
2021/10/14 12:21:24;;;;;;;5.65;1.10;;;;;29.90;99446.00;;;;5085851;28;20165;-75
2021/10/14 12:24:09;;;;;;;1.88;0.90;;;;;29.90;99457.00;;;;5067642;28;20857;-73
2021/10/14 12:26:48;;;;;;;2.90;1.27;;;;;29.70;99439.00;;;;5085832;28;20434;-74
2021/10/14 12:29:21;;;;;;;3.25;1.23;;;;;29.50;99445.00;;;;5085406;28;20046;-74
2021/10/14 12:32:17;;;;;;;4.57;1.30;;;;;29.90;99449.00;;;;5086220;28;20040;-74
2021/10/14 12:34:53;;;;;;;3.20;1.08;;;;;29.70;99457.00;;;;5067500;28;20063;-74
2021/10/14 12:37:34;;;;;;;4.10;1.10;;;;;29.90;99487.00;;;;5085868;28;20506;-76
2021/10/14 12:40:19;;;;;;;5.63;1.20;;;;;29.00;99463.00;;;;5086359;28;20741;-75